sensor_id;sensor_type;location;lat;lon;timestamp;pressure;altitude;pressure_sealevel;temperature;humidity
21588;BME280;10956;48.878;13.316;2023-08-06T00:01:11;93439.19;;;14.87;100.00
21588;BME280;10956;48.878;13.316;2023-08-06T00:03:37;93431.84;;;14.84;100.00
21588;BME280;10956;48.878;13.316;2023-08-06T00:06:04;93428.75;;;14.82;100.00
21588;BME280;10956;48.878;13.316;2023-08-06T00:08:30;93420.31;;;14.80;100.00
21588;BME280;10956;48.878;13.316;2023-08-06T00:10:55;93419.22;;;14.81;100.00
21588;BME280;10956;48.878;13.316;2023-08-06T00:13:21;93420.47;;;14.83;100.00
21588;BME280;10956;48.878;13.316;2023-08-06T00:15:46;93416.72;;;14.84;100.00
21588;BME280;10956;48.878;13.316;2023-08-06T00:18:12;93427.19;;;14.81;100.00
21588;BME280;10956;48.878;13.316;2023-08-06T00:20:40;93417.97;;;14.78;100.00
21588;BME280;10956;48.878;13.316;2023-08-06T00:23:07;93419.84;;;14.78;100.00
21588;BME280;10956;48.878;13.316;2023-08-06T00:25:32;93426.22;;;14.77;100.00
21588;BME280;10956;48.878;13.316;2023-08-06T00:27:58;93425.75;;;14.75;100.00
21588;BME280;10956;48.878;13.316;2023-08-06T00:30:23;93422.34;;;14.74;100.00
21588;BME280;10956;48.878;13.316;2023-08-06T00:32:48;93433.41;;;14.76;100.00
21588;BME280;10956;48.878;13.316;2023-08-06T00:35:14;93427.78;;;14.78;100.00
21588;BME280;10956;48.878;13.316;2023-08-06T00:37:39;93423.44;;;14.82;100.00
21588;BME280;10956;48.878;13.316;2023-08-06T00:40:06;93415.94;;;14.84;100.00
21588;BME280;10956;48.878;13.316;2023-08-06T00:42:32;93416.72;;;14.84;100.00
21588;BME280;10956;48.878;13.316;2023-08-06T00:44:57;93417.97;;;14.87;100.00
21588;BME280;10956;48.878;13.316;2023-08-06T00:47:23;93407.84;;;14.89;100.00
21588;BME280;10956;48.878;13.316;2023-08-06T00:49:49;93413.63;;;14.91;100.00
21588;BME280;10956;48.878;13.316;2023-08-06T00:52:14;93411.59;;;14.88;100.00
21588;BME280;10956;48.878;13.316;2023-08-06T00:54:40;93403.94;;;14.86;100.00
21588;BME280;10956;48.878;13.316;2023-08-06T00:57:07;93402.69;;;14.84;100.00
21588;BME280;10956;48.878;13.316;2023-08-06T00:59:33;93405.34;;;14.84;100.00
21588;BME280;10956;48.878;13.316;2023-08-06T01:01:59;93403.47;;;14.76;100.00
21588;BME280;10956;48.878;13.316;2023-08-06T01:04:24;93401.28;;;14.78;100.00
21588;BME280;10956;48.878;13.316;2023-08-06T01:09:37;93400.97;;;14.79;100.00
21588;BME280;10956;48.878;13.316;2023-08-06T01:17:33;93409.22;;;14.69;100.00
21588;BME280;10956;48.878;13.316;2023-08-06T01:19:59;93406.25;;;14.71;100.00
21588;BME280;10956;48.878;13.316;2023-08-06T01:22:24;93400.16;;;14.70;100.00
21588;BME280;10956;48.878;13.316;2023-08-06T01:24:51;93403.75;;;14.66;100.00
21588;BME280;10956;48.878;13.316;2023-08-06T01:30:28;93395.31;;;14.64;100.00
21588;BME280;10956;48.878;13.316;2023-08-06T01:33:00;93390.16;;;14.59;100.00
21588;BME280;10956;48.878;13.316;2023-08-06T01:35:29;93392.03;;;14.58;100.00
21588;BME280;10956;48.878;13.316;2023-08-06T01:37:55;93394.22;;;14.56;100.00
21588;BME280;10956;48.878;13.316;2023-08-06T01:40:21;93389.38;;;14.58;100.00
21588;BME280;10956;48.878;13.316;2023-08-06T01:42:47;93386.88;;;14.53;100.00
21588;BME280;10956;48.878;13.316;2023-08-06T01:45:12;93387.66;;;14.53;100.00
21588;BME280;10956;48.878;13.316;2023-08-06T01:47:38;93384.41;;;14.57;100.00
21588;BME280;10956;48.878;13.316;2023-08-06T01:50:03;93381.75;;;14.57;100.00
21588;BME280;10956;48.878;13.316;2023-08-06T01:52:29;93382.84;;;14.56;100.00
21588;BME280;10956;48.878;13.316;2023-08-06T01:54:55;93375.34;;;14.58;100.00
21588;BME280;10956;48.878;13.316;2023-08-06T01:57:20;93368.81;;;14.64;100.00
21588;BME280;10956;48.878;13.316;2023-08-06T01:59:46;93371.31;;;14.69;100.00
21588;BME280;10956;48.878;13.316;2023-08-06T02:02:12;93364.00;;;14.74;100.00
21588;BME280;10956;48.878;13.316;2023-08-06T02:04:37;93365.53;;;14.75;100.00
21588;BME280;10956;48.878;13.316;2023-08-06T02:07:03;93358.69;;;14.74;100.00
21588;BME280;10956;48.878;13.316;2023-08-06T02:09:28;93363.03;;;14.70;100.00
21588;BME280;10956;48.878;13.316;2023-08-06T02:11:53;93356.66;;;14.63;100.00
21588;BME280;10956;48.878;13.316;2023-08-06T02:14:19;93352.59;;;14.57;100.00
21588;BME280;10956;48.878;13.316;2023-08-06T02:16:44;93349.47;;;14.54;100.00
21588;BME280;10956;48.878;13.316;2023-08-06T02:19:10;93349.94;;;14.57;100.00
21588;BME280;10956;48.878;13.316;2023-08-06T02:21:35;93349.63;;;14.58;100.00
21588;BME280;10956;48.878;13.316;2023-08-06T02:24:00;93349.63;;;14.58;100.00
21588;BME280;10956;48.878;13.316;2023-08-06T02:26:26;93338.25;;;14.58;100.00
21588;BME280;10956;48.878;13.316;2023-08-06T02:28:51;93338.88;;;14.54;100.00
21588;BME280;10956;48.878;13.316;2023-08-06T02:31:17;93335.28;;;14.59;100.00
21588;BME280;10956;48.878;13.316;2023-08-06T02:33:42;93337.00;;;14.64;100.00
21588;BME280;10956;48.878;13.316;2023-08-06T02:36:07;93332.63;;;14.68;100.00
21588;BME280;10956;48.878;13.316;2023-08-06T02:38:33;93322.97;;;14.72;100.00
21588;BME280;10956;48.878;13.316;2023-08-06T02:40:58;93321.56;;;14.74;100.00
21588;BME280;10956;48.878;13.316;2023-08-06T02:43:24;93330.75;;;14.77;100.00
21588;BME280;10956;48.878;13.316;2023-08-06T02:45:49;93323.28;;;14.79;100.00
21588;BME280;10956;48.878;13.316;2023-08-06T02:48:15;93333.56;;;14.80;100.00
21588;BME280;10956;48.878;13.316;2023-08-06T02:50:43;93325.63;;;14.80;100.00
21588;BME280;10956;48.878;13.316;2023-08-06T02:53:09;93323.59;;;14.69;100.00
21588;BME280;10956;48.878;13.316;2023-08-06T02:55:35;93325.47;;;14.68;100.00
21588;BME280;10956;48.878;13.316;2023-08-06T02:58:01;93322.66;;;14.65;100.00
21588;BME280;10956;48.878;13.316;2023-08-06T03:00:27;93317.50;;;14.68;100.00
21588;BME280;10956;48.878;13.316;2023-08-06T03:02:53;93323.44;;;14.65;100.00
21588;BME280;10956;48.878;13.316;2023-08-06T03:05:18;93315.78;;;14.64;100.00
21588;BME280;10956;48.878;13.316;2023-08-06T03:07:44;93319.53;;;14.63;100.00
21588;BME280;10956;48.878;13.316;2023-08-06T03:10:09;93317.34;;;14.56;100.00
21588;BME280;10956;48.878;13.316;2023-08-06T03:12:35;93311.56;;;14.54;100.00
21588;BME280;10956;48.878;13.316;2023-08-06T03:15:00;93312.34;;;14.54;100.00
21588;BME280;10956;48.878;13.316;2023-08-06T03:17:25;93326.69;;;14.53;100.00
21588;BME280;10956;48.878;13.316;2023-08-06T03:19:51;93329.19;;;14.50;100.00
21588;BME280;10956;48.878;13.316;2023-08-06T03:22:16;93331.84;;;14.50;100.00
21588;BME280;10956;48.878;13.316;2023-08-06T03:24:42;93334.34;;;14.46;100.00
21588;BME280;10956;48.878;13.316;2023-08-06T03:27:07;93331.69;;;14.46;100.00
21588;BME280;10956;48.878;13.316;2023-08-06T03:29:32;93337.13;;;14.50;100.00
21588;BME280;10956;48.878;13.316;2023-08-06T03:31:58;93335.75;;;14.52;100.00
21588;BME280;10956;48.878;13.316;2023-08-06T03:34:23;93330.59;;;14.56;100.00
21588;BME280;10956;48.878;13.316;2023-08-06T03:36:49;93332.16;;;14.57;100.00
21588;BME280;10956;48.878;13.316;2023-08-06T03:39:14;93332.31;;;14.61;100.00
21588;BME280;10956;48.878;13.316;2023-08-06T03:41:40;93327.63;;;14.58;100.00
21588;BME280;10956;48.878;13.316;2023-08-06T03:44:05;93318.13;;;14.57;100.00
21588;BME280;10956;48.878;13.316;2023-08-06T03:46:31;93326.06;;;14.57;100.00
21588;BME280;10956;48.878;13.316;2023-08-06T03:48:59;93330.91;;;14.54;100.00
21588;BME280;10956;48.878;13.316;2023-08-06T03:51:25;93326.69;;;14.53;100.00
21588;BME280;10956;48.878;13.316;2023-08-06T03:53:50;93334.97;;;14.52;100.00
21588;BME280;10956;48.878;13.316;2023-08-06T03:56:16;93328.25;;;14.54;100.00
21588;BME280;10956;48.878;13.316;2023-08-06T03:58:41;93324.03;;;14.53;100.00
21588;BME280;10956;48.878;13.316;2023-08-06T04:01:07;93316.56;;;14.56;100.00
21588;BME280;10956;48.878;13.316;2023-08-06T04:03:32;93320.00;;;14.56;100.00
21588;BME280;10956;48.878;13.316;2023-08-06T04:05:58;93323.44;;;14.57;100.00
21588;BME280;10956;48.878;13.316;2023-08-06T04:08:23;93310.16;;;14.57;100.00
21588;BME280;10956;48.878;13.316;2023-08-06T04:10:54;93315.47;;;14.57;100.00
21588;BME280;10956;48.878;13.316;2023-08-06T04:13:20;93313.13;;;14.55;100.00
21588;BME280;10956;48.878;13.316;2023-08-06T04:15:45;93319.22;;;14.56;100.00
21588;BME280;10956;48.878;13.316;2023-08-06T04:18:11;93319.22;;;14.56;100.00
21588;BME280;10956;48.878;13.316;2023-08-06T04:20:44;93311.72;;;14.58;100.00
21588;BME280;10956;48.878;13.316;2023-08-06T04:23:10;93310.16;;;14.57;100.00
21588;BME280;10956;48.878;13.316;2023-08-06T04:25:35;93313.13;;;14.55;100.00
21588;BME280;10956;48.878;13.316;2023-08-06T04:28:01;93311.88;;;14.52;100.00
21588;BME280;10956;48.878;13.316;2023-08-06T04:30:26;93310.00;;;14.53;100.00
21588;BME280;10956;48.878;13.316;2023-08-06T04:32:52;93318.59;;;14.50;100.00
21588;BME280;10956;48.878;13.316;2023-08-06T04:35:17;93312.03;;;14.47;100.00
21588;BME280;10956;48.878;13.316;2023-08-06T04:37:42;93314.84;;;14.42;100.00
21588;BME280;10956;48.878;13.316;2023-08-06T04:40:08;93314.47;;;14.35;100.00
21588;BME280;10956;48.878;13.316;2023-08-06T04:42:34;93304.81;;;14.31;100.00
21588;BME280;10956;48.878;13.316;2023-08-06T04:45:01;93303.56;;;14.28;100.00
21588;BME280;10956;48.878;13.316;2023-08-06T04:47:27;93300.28;;;14.22;100.00
21588;BME280;10956;48.878;13.316;2023-08-06T04:49:53;93297.78;;;14.26;100.00
21588;BME280;10956;48.878;13.316;2023-08-06T04:52:18;93303.72;;;14.23;100.00
21588;BME280;10956;48.878;13.316;2023-08-06T04:54:44;93299.81;;;14.29;100.00
21588;BME280;10956;48.878;13.316;2023-08-06T04:57:09;93293.91;;;14.32;100.00
21588;BME280;10956;48.878;13.316;2023-08-06T04:59:35;93291.72;;;14.34;100.00
21588;BME280;10956;48.878;13.316;2023-08-06T05:02:01;93289.38;;;14.33;100.00
21588;BME280;10956;48.878;13.316;2023-08-06T05:04:28;93291.09;;;14.37;100.00
21588;BME280;10956;48.878;13.316;2023-08-06T05:06:53;93288.28;;;14.34;100.00
21588;BME280;10956;48.878;13.316;2023-08-06T05:09:19;93288.91;;;14.39;100.00
21588;BME280;10956;48.878;13.316;2023-08-06T05:11:46;93280.19;;;14.39;100.00
21588;BME280;10956;48.878;13.316;2023-08-06T05:14:12;93294.25;;;14.48;100.00
21588;BME280;10956;48.878;13.316;2023-08-06T05:16:37;93293.94;;;14.49;100.00
21588;BME280;10956;48.878;13.316;2023-08-06T05:19:03;93299.72;;;14.51;100.00
21588;BME280;10956;48.878;13.316;2023-08-06T05:21:28;93297.69;;;14.48;100.00
21588;BME280;10956;48.878;13.316;2023-08-06T05:23:54;93304.22;;;14.42;100.00
21588;BME280;10956;48.878;13.316;2023-08-06T05:26:19;93301.44;;;14.47;100.00
21588;BME280;10956;48.878;13.316;2023-08-06T05:28:45;93305.16;;;14.46;100.00
21588;BME280;10956;48.878;13.316;2023-08-06T05:31:11;93295.03;;;14.57;100.00
21588;BME280;10956;48.878;13.316;2023-08-06T05:33:36;93299.25;;;14.67;100.00
21588;BME280;10956;48.878;13.316;2023-08-06T05:36:02;93288.97;;;14.74;100.00
21588;BME280;10956;48.878;13.316;2023-08-06T05:38:27;93294.41;;;14.77;100.00
21588;BME280;10956;48.878;13.316;2023-08-06T05:40:53;93290.97;;;14.94;100.00
21588;BME280;10956;48.878;13.316;2023-08-06T05:43:18;93291.72;;;15.03;100.00
21588;BME280;10956;48.878;13.316;2023-08-06T05:45:45;93288.59;;;15.18;100.00
21588;BME280;10956;48.878;13.316;2023-08-06T05:48:11;93290.59;;;15.30;100.00
21588;BME280;10956;48.878;13.316;2023-08-06T05:50:37;93290.25;;;15.40;100.00
21588;BME280;10956;48.878;13.316;2023-08-06T05:53:02;93295.34;;;15.54;100.00
21588;BME280;10956;48.878;13.316;2023-08-06T05:55:28;93293.91;;;15.74;100.00
21588;BME280;10956;48.878;13.316;2023-08-06T05:57:53;93283.84;;;15.88;100.00
21588;BME280;10956;48.878;13.316;2023-08-06T06:00:19;93288.56;;;16.12;100.00
21588;BME280;10956;48.878;13.316;2023-08-06T06:02:45;93291.75;;;16.26;100.00
21588;BME280;10956;48.878;13.316;2023-08-06T06:05:11;93295.41;;;16.42;100.00
21588;BME280;10956;48.878;13.316;2023-08-06T06:07:36;93305.00;;;16.56;100.00
21588;BME280;10956;48.878;13.316;2023-08-06T06:10:01;93302.63;;;16.63;100.00
21588;BME280;10956;48.878;13.316;2023-08-06T06:12:27;93296.03;;;16.69;100.00
21588;BME280;10956;48.878;13.316;2023-08-06T06:14:52;93303.91;;;16.57;100.00
21588;BME280;10956;48.878;13.316;2023-08-06T06:17:18;93302.28;;;16.43;100.00
21588;BME280;10956;48.878;13.316;2023-08-06T06:19:43;93301.56;;;16.34;100.00
21588;BME280;10956;48.878;13.316;2023-08-06T06:22:09;93301.03;;;16.20;100.00
21588;BME280;10956;48.878;13.316;2023-08-06T06:24:34;93302.13;;;16.19;100.00
21588;BME280;10956;48.878;13.316;2023-08-06T06:27:00;93301.63;;;16.26;100.00
21588;BME280;10956;48.878;13.316;2023-08-06T06:29:25;93298.31;;;16.29;100.00
21588;BME280;10956;48.878;13.316;2023-08-06T06:31:51;93302.44;;;16.18;100.00
21588;BME280;10956;48.878;13.316;2023-08-06T06:34:16;93303.88;;;16.15;100.00
21588;BME280;10956;48.878;13.316;2023-08-06T06:36:41;93302.94;;;16.11;100.00
21588;BME280;10956;48.878;13.316;2023-08-06T06:39:07;93294.00;;;16.15;100.00
21588;BME280;10956;48.878;13.316;2023-08-06T06:41:33;93294.59;;;16.21;100.00
21588;BME280;10956;48.878;13.316;2023-08-06T06:43:58;93294.94;;;16.40;100.00
21588;BME280;10956;48.878;13.316;2023-08-06T06:46:24;93304.66;;;16.66;100.00
21588;BME280;10956;48.878;13.316;2023-08-06T06:48:49;93298.28;;;16.79;100.00
21588;BME280;10956;48.878;13.316;2023-08-06T06:51:15;93302.91;;;16.70;100.00
21588;BME280;10956;48.878;13.316;2023-08-06T06:53:40;93301.38;;;16.39;100.00
21588;BME280;10956;48.878;13.316;2023-08-06T06:56:06;93304.47;;;16.21;100.00
21588;BME280;10956;48.878;13.316;2023-08-06T06:58:32;93304.97;;;16.14;100.00
21588;BME280;10956;48.878;13.316;2023-08-06T07:00:57;93300.56;;;16.18;100.00
21588;BME280;10956;48.878;13.316;2023-08-06T07:03:23;93302.72;;;16.25;100.00
21588;BME280;10956;48.878;13.316;2023-08-06T07:05:49;93312.56;;;16.24;100.00
21588;BME280;10956;48.878;13.316;2023-08-06T07:08:14;93309.19;;;16.15;100.00
21588;BME280;10956;48.878;13.316;2023-08-06T07:10:41;93303.81;;;16.24;100.00
21588;BME280;10956;48.878;13.316;2023-08-06T07:13:07;93304.53;;;16.33;100.00
21588;BME280;10956;48.878;13.316;2023-08-06T07:15:32;93298.06;;;16.42;100.00
21588;BME280;10956;48.878;13.316;2023-08-06T07:17:57;93302.47;;;16.59;100.00
21588;BME280;10956;48.878;13.316;2023-08-06T07:20:23;93307.31;;;16.66;100.00
21588;BME280;10956;48.878;13.316;2023-08-06T07:22:48;93307.56;;;16.73;100.00
21588;BME280;10956;48.878;13.316;2023-08-06T07:25:15;93297.00;;;16.85;100.00
21588;BME280;10956;48.878;13.316;2023-08-06T07:27:41;93285.09;;;17.03;100.00
21588;BME280;10956;48.878;13.316;2023-08-06T07:30:07;93298.06;;;17.05;100.00
21588;BME280;10956;48.878;13.316;2023-08-06T07:32:32;93291.47;;;16.90;100.00
21588;BME280;10956;48.878;13.316;2023-08-06T07:34:58;93286.28;;;16.73;100.00
21588;BME280;10956;48.878;13.316;2023-08-06T07:37:28;93285.75;;;16.59;100.00
21588;BME280;10956;48.878;13.316;2023-08-06T07:39:54;93286.38;;;16.35;100.00
21588;BME280;10956;48.878;13.316;2023-08-06T07:42:20;93287.00;;;16.11;100.00
21588;BME280;10956;48.878;13.316;2023-08-06T07:44:56;93290.22;;;15.96;100.00
21588;BME280;10956;48.878;13.316;2023-08-06T07:47:22;93285.41;;;15.89;100.00
21588;BME280;10956;48.878;13.316;2023-08-06T07:49:47;93289.00;;;15.85;100.00
21588;BME280;10956;48.878;13.316;2023-08-06T07:52:13;93285.25;;;15.86;100.00
21588;BME280;10956;48.878;13.316;2023-08-06T07:54:38;93284.63;;;15.89;100.00
21588;BME280;10956;48.878;13.316;2023-08-06T07:57:04;93282.06;;;16.01;100.00
21588;BME280;10956;48.878;13.316;2023-08-06T07:59:30;93288.22;;;16.13;100.00
21588;BME280;10956;48.878;13.316;2023-08-06T08:01:55;93286.53;;;16.38;100.00
21588;BME280;10956;48.878;13.316;2023-08-06T08:04:21;93286.81;;;16.66;100.00
21588;BME280;10956;48.878;13.316;2023-08-06T08:06:47;93284.31;;;17.03;100.00
21588;BME280;10956;48.878;13.316;2023-08-06T08:09:13;93277.31;;;17.43;100.00
21588;BME280;10956;48.878;13.316;2023-08-06T08:11:39;93286.16;;;17.81;100.00
21588;BME280;10956;48.878;13.316;2023-08-06T08:14:04;93284.84;;;18.11;100.00
21588;BME280;10956;48.878;13.316;2023-08-06T08:16:30;93291.38;;;18.26;100.00
21588;BME280;10956;48.878;13.316;2023-08-06T08:18:55;93294.59;;;18.31;100.00
21588;BME280;10956;48.878;13.316;2023-08-06T08:21:21;93292.16;;;18.14;100.00
21588;BME280;10956;48.878;13.316;2023-08-06T08:23:46;93292.63;;;17.92;100.00
21588;BME280;10956;48.878;13.316;2023-08-06T08:26:12;93290.38;;;17.69;100.00
21588;BME280;10956;48.878;13.316;2023-08-06T08:28:37;93289.22;;;17.58;100.00
21588;BME280;10956;48.878;13.316;2023-08-06T08:31:02;93290.31;;;17.45;100.00
21588;BME280;10956;48.878;13.316;2023-08-06T08:33:28;93289.16;;;17.22;100.00
21588;BME280;10956;48.878;13.316;2023-08-06T08:35:53;93297.94;;;17.01;100.00
21588;BME280;10956;48.878;13.316;2023-08-06T08:38:19;93289.91;;;16.89;100.00
21588;BME280;10956;48.878;13.316;2023-08-06T08:40:46;93289.66;;;16.82;100.00
21588;BME280;10956;48.878;13.316;2023-08-06T08:43:15;93278.75;;;16.75;100.00
21588;BME280;10956;48.878;13.316;2023-08-06T08:45:42;93283.19;;;16.71;100.00
21588;BME280;10956;48.878;13.316;2023-08-06T08:48:11;93284.47;;;16.65;100.00
21588;BME280;10956;48.878;13.316;2023-08-06T08:50:39;93276.41;;;16.53;100.00
21588;BME280;10956;48.878;13.316;2023-08-06T08:53:05;93275.56;;;16.61;100.00
21588;BME280;10956;48.878;13.316;2023-08-06T08:55:31;93275.91;;;16.80;100.00
21588;BME280;10956;48.878;13.316;2023-08-06T08:57:57;93277.75;;;17.00;100.00
21588;BME280;10956;48.878;13.316;2023-08-06T09:00:22;93264.41;;;17.21;100.00
21588;BME280;10956;48.878;13.316;2023-08-06T09:02:48;93268.56;;;17.55;100.00
21588;BME280;10956;48.878;13.316;2023-08-06T09:05:14;93263.97;;;17.89;100.00
21588;BME280;10956;48.878;13.316;2023-08-06T09:07:47;93261.03;;;18.30;100.00
21588;BME280;10956;48.878;13.316;2023-08-06T09:10:14;93269.69;;;18.64;100.00
21588;BME280;10956;48.878;13.316;2023-08-06T09:12:43;93258.28;;;18.79;100.00
21588;BME280;10956;48.878;13.316;2023-08-06T09:15:09;93256.00;;;18.93;100.00
21588;BME280;10956;48.878;13.316;2023-08-06T09:17:36;93250.03;;;18.84;100.00
21588;BME280;10956;48.878;13.316;2023-08-06T09:20:12;93241.88;;;18.65;100.00
21588;BME280;10956;48.878;13.316;2023-08-06T09:22:37;93239.78;;;18.46;100.00
21588;BME280;10956;48.878;13.316;2023-08-06T09:25:03;93251.47;;;18.42;100.00
21588;BME280;10956;48.878;13.316;2023-08-06T09:27:34;93243.66;;;18.61;100.00
21588;BME280;10956;48.878;13.316;2023-08-06T09:30:00;93238.97;;;18.70;100.00
21588;BME280;10956;48.878;13.316;2023-08-06T09:32:25;93233.09;;;18.92;100.00
21588;BME280;10956;48.878;13.316;2023-08-06T09:34:56;93235.59;;;19.29;100.00
21588;BME280;10956;48.878;13.316;2023-08-06T09:37:21;93226.97;;;19.51;100.00
21588;BME280;10956;48.878;13.316;2023-08-06T09:39:47;93226.16;;;19.63;100.00
21588;BME280;10956;48.878;13.316;2023-08-06T09:42:15;93226.59;;;19.65;100.00
21588;BME280;10956;48.878;13.316;2023-08-06T09:44:40;93219.22;;;19.46;100.00
21588;BME280;10956;48.878;13.316;2023-08-06T09:47:06;93217.94;;;19.40;100.00
21588;BME280;10956;48.878;13.316;2023-08-06T09:51:57;93212.88;;;19.66;99.78
21588;BME280;10956;48.878;13.316;2023-08-06T09:54:25;93205.63;;;19.83;99.02
21588;BME280;10956;48.878;13.316;2023-08-06T09:56:55;93199.50;;;19.82;98.81
21588;BME280;10956;48.878;13.316;2023-08-06T09:59:21;93192.78;;;19.73;99.97
21588;BME280;10956;48.878;13.316;2023-08-06T10:01:48;93203.47;;;19.57;100.00
21588;BME280;10956;48.878;13.316;2023-08-06T10:04:14;93191.47;;;19.35;100.00
21588;BME280;10956;48.878;13.316;2023-08-06T10:06:42;93181.13;;;19.18;100.00
21588;BME280;10956;48.878;13.316;2023-08-06T10:09:08;93178.97;;;19.08;100.00
21588;BME280;10956;48.878;13.316;2023-08-06T10:11:36;93173.53;;;19.51;100.00
21588;BME280;10956;48.878;13.316;2023-08-06T10:14:19;93172.03;;;20.01;100.00
21588;BME280;10956;48.878;13.316;2023-08-06T10:16:47;93173.00;;;20.28;100.00
21588;BME280;10956;48.878;13.316;2023-08-06T10:19:13;93173.50;;;20.33;99.64
21588;BME280;10956;48.878;13.316;2023-08-06T10:21:40;93175.31;;;20.29;98.09
21588;BME280;10956;48.878;13.316;2023-08-06T10:24:09;93179.25;;;20.36;96.03
21588;BME280;10956;48.878;13.316;2023-08-06T10:26:39;93182.22;;;20.30;95.90
21588;BME280;10956;48.878;13.316;2023-08-06T10:29:36;93179.50;;;20.11;96.17
21588;BME280;10956;48.878;13.316;2023-08-06T10:32:02;93181.13;;;19.81;96.65
21588;BME280;10956;48.878;13.316;2023-08-06T10:34:59;93193.97;;;19.44;98.30
21588;BME280;10956;48.878;13.316;2023-08-06T10:37:36;93183.00;;;19.01;99.99
21588;BME280;10956;48.878;13.316;2023-08-06T10:40:02;93189.03;;;18.70;100.00
21588;BME280;10956;48.878;13.316;2023-08-06T10:42:29;93168.66;;;18.78;100.00
21588;BME280;10956;48.878;13.316;2023-08-06T10:45:17;93171.19;;;19.02;100.00
21588;BME280;10956;48.878;13.316;2023-08-06T10:47:43;93169.06;;;19.24;100.00
21588;BME280;10956;48.878;13.316;2023-08-06T10:52:39;93175.59;;;19.11;100.00
21588;BME280;10956;48.878;13.316;2023-08-06T10:55:05;93170.66;;;18.81;100.00
21588;BME280;10956;48.878;13.316;2023-08-06T10:57:30;93180.25;;;18.70;100.00
21588;BME280;10956;48.878;13.316;2023-08-06T10:59:56;93178.06;;;18.60;100.00
21588;BME280;10956;48.878;13.316;2023-08-06T11:02:21;93183.63;;;18.55;100.00
21588;BME280;10956;48.878;13.316;2023-08-06T11:04:48;93187.50;;;18.57;100.00
21588;BME280;10956;48.878;13.316;2023-08-06T11:07:13;93183.63;;;18.67;100.00
21588;BME280;10956;48.878;13.316;2023-08-06T11:09:39;93191.91;;;18.78;100.00
21588;BME280;10956;48.878;13.316;2023-08-06T11:12:11;93197.78;;;18.83;100.00
21588;BME280;10956;48.878;13.316;2023-08-06T11:14:36;93174.38;;;18.92;100.00
21588;BME280;10956;48.878;13.316;2023-08-06T11:17:02;93183.88;;;19.06;99.95
21588;BME280;10956;48.878;13.316;2023-08-06T11:19:28;93188.00;;;19.19;99.60
21588;BME280;10956;48.878;13.316;2023-08-06T11:21:54;93186.81;;;19.32;100.00
21588;BME280;10956;48.878;13.316;2023-08-06T11:24:19;93195.88;;;19.43;99.72
21588;BME280;10956;48.878;13.316;2023-08-06T11:26:45;93192.72;;;19.53;98.27
21588;BME280;10956;48.878;13.316;2023-08-06T11:29:10;93182.88;;;19.57;97.99
21588;BME280;10956;48.878;13.316;2023-08-06T11:31:36;93184.59;;;19.50;97.09
21588;BME280;10956;48.878;13.316;2023-08-06T11:34:01;93177.50;;;19.26;97.07
21588;BME280;10956;48.878;13.316;2023-08-06T11:36:31;93191.63;;;19.11;96.67
21588;BME280;10956;48.878;13.316;2023-08-06T11:38:58;93191.22;;;19.24;96.28
21588;BME280;10956;48.878;13.316;2023-08-06T11:41:23;93201.03;;;19.36;94.42
21588;BME280;10956;48.878;13.316;2023-08-06T11:43:49;93190.69;;;19.34;94.35
21588;BME280;10956;48.878;13.316;2023-08-06T11:46:14;93197.78;;;18.83;94.68
21588;BME280;10956;48.878;13.316;2023-08-06T11:48:54;93227.06;;;18.15;96.25
21588;BME280;10956;48.878;13.316;2023-08-06T11:51:22;93234.31;;;17.78;98.54
21588;BME280;10956;48.878;13.316;2023-08-06T11:53:49;93230.63;;;17.58;100.00
21588;BME280;10956;48.878;13.316;2023-08-06T11:56:15;93231.28;;;17.43;100.00
21588;BME280;10956;48.878;13.316;2023-08-06T11:58:41;93242.81;;;17.35;98.67
21588;BME280;10956;48.878;13.316;2023-08-06T12:01:07;93243.00;;;17.18;100.00
21588;BME280;10956;48.878;13.316;2023-08-06T12:03:32;93243.66;;;17.15;99.25
21588;BME280;10956;48.878;13.316;2023-08-06T12:05:58;93231.00;;;17.11;98.75
21588;BME280;10956;48.878;13.316;2023-08-06T12:08:26;93242.78;;;17.23;97.30
21588;BME280;10956;48.878;13.316;2023-08-06T12:10:52;93234.81;;;17.47;95.78
21588;BME280;10956;48.878;13.316;2023-08-06T12:13:19;93235.97;;;17.95;95.53
21588;BME280;10956;48.878;13.316;2023-08-06T12:15:45;93233.66;;;18.58;94.23
21588;BME280;10956;48.878;13.316;2023-08-06T12:18:10;93234.84;;;19.00;92.88
21588;BME280;10956;48.878;13.316;2023-08-06T12:20:36;93243.59;;;19.29;93.13
21588;BME280;10956;48.878;13.316;2023-08-06T12:23:03;93243.53;;;19.41;92.39
21588;BME280;10956;48.878;13.316;2023-08-06T12:25:29;93229.72;;;19.39;88.98
21588;BME280;10956;48.878;13.316;2023-08-06T12:27:54;93239.56;;;19.35;89.15
21588;BME280;10956;48.878;13.316;2023-08-06T12:30:20;93247.25;;;19.09;90.17
21588;BME280;10956;48.878;13.316;2023-08-06T12:32:45;93242.72;;;18.81;90.48
21588;BME280;10956;48.878;13.316;2023-08-06T12:35:10;93246.50;;;18.80;91.12
21588;BME280;10956;48.878;13.316;2023-08-06T12:37:36;93238.19;;;18.97;90.09
21588;BME280;10956;48.878;13.316;2023-08-06T12:40:04;93232.41;;;18.95;89.17
21588;BME280;10956;48.878;13.316;2023-08-06T12:42:29;93233.66;;;18.58;91.82
21588;BME280;10956;48.878;13.316;2023-08-06T12:44:55;93236.47;;;18.37;94.00
21588;BME280;10956;48.878;13.316;2023-08-06T12:47:20;93235.69;;;18.36;95.32
21588;BME280;10956;48.878;13.316;2023-08-06T12:49:46;93241.09;;;18.52;96.38
21588;BME280;10956;48.878;13.316;2023-08-06T12:52:11;93237.41;;;18.69;96.78